Time;durP1;ratioP1;P1;durP2;ratioP2;P2;SDS_P1;SDS_P2;PMS_P1;PMS_P2;Temp;Humidity;BMP_temperature;BMP_pressure;BME280_temperature;BME280_humidity;BME280_pressure;Samples;Min_cycle;Max_cycle;Signal;HPM_P1;HPM_P2
2022/11/25 00:01:15;;;;;;;25.83;15.60;;;;;;;4.48;76.41;99826.50;4289201;33;35013;-75
2022/11/25 00:03:43;;;;;;;26.58;15.25;;;;;;;4.61;75.50;99829.19;4290267;33;34464;-74
2022/11/25 00:06:13;;;;;;;24.63;14.32;;;;;;;4.78;74.97;99826.88;4289145;33;33984;-76
2022/11/25 00:08:42;;;;;;;25.55;14.77;;;;;;;4.82;74.52;99828.13;4297247;33;34879;-75
2022/11/25 00:11:11;;;;;;;28.05;16.15;;;;;;;4.44;75.45;99820.69;4304861;33;35104;-76
2022/11/25 00:13:39;;;;;;;27.98;16.37;;;;;;;4.57;75.13;99819.06;4287891;33;34514;-75
2022/11/25 00:16:11;;;;;;;26.02;15.98;;;;;;;4.42;75.44;99817.41;4277313;33;34001;-76
2022/11/25 00:18:39;;;;;;;26.00;16.25;;;;;;;4.76;74.02;99822.75;4277539;33;34065;-75
2022/11/25 00:21:12;;;;;;;29.30;18.00;;;;;;;5.04;72.41;99827.88;4277372;33;33807;-74
2022/11/25 00:23:39;;;;;;;24.95;15.45;;;;;;;4.87;72.55;99822.12;4298887;33;33762;-74
2022/11/25 00:26:11;;;;;;;27.40;16.30;;;;;;;4.69;73.37;99830.84;4291726;33;33949;-75
2022/11/25 00:28:41;;;;;;;31.00;17.15;;;;;;;4.72;73.54;99823.16;4291719;33;34293;-75
2022/11/25 00:31:21;;;;;;;31.33;17.33;;;;;;;4.29;75.19;99833.50;4277459;33;34262;-76
2022/11/25 00:33:49;;;;;;;30.08;18.65;;;;;;;4.30;75.98;99838.69;4277466;33;34408;-75
2022/11/25 00:36:27;;;;;;;30.75;17.10;;;;;;;4.03;76.82;99847.72;4290200;33;34646;-74
2022/11/25 00:39:04;;;;;;;25.08;16.02;;;;;;;3.88;77.62;99850.59;4277139;33;33829;-75
2022/11/25 00:44:34;;;;;;;28.67;16.87;;;;;;;4.62;74.86;99843.44;4279304;33;33561;-74
2022/11/25 00:47:17;;;;;;;27.52;16.55;;;;;;;4.40;75.38;99843.63;4278495;33;34614;-75
2022/11/25 00:49:51;;;;;;;28.80;16.67;;;;;;;3.98;76.51;99845.66;4277276;33;34283;-74
2022/11/25 00:52:20;;;;;;;26.67;15.68;;;;;;;4.41;75.59;99848.00;4276953;33;35028;-75
2022/11/25 00:54:48;;;;;;;29.48;16.92;;;;;;;4.43;75.26;99859.34;4277206;33;33563;-73
2022/11/25 00:57:17;;;;;;;28.25;17.33;;;;;;;4.28;76.44;99851.50;4290209;33;33773;-76
2022/11/25 00:59:45;;;;;;;27.55;17.08;;;;;;;4.01;78.05;99853.28;4289931;33;34312;-75
2022/11/25 01:02:14;;;;;;;31.45;17.12;;;;;;;4.01;78.35;99847.09;4289923;33;34906;-75
2022/11/25 01:04:43;;;;;;;28.17;16.95;;;;;;;4.03;78.78;99856.59;4290239;33;34299;-74
2022/11/25 01:07:14;;;;;;;29.15;17.80;;;;;;;4.13;78.07;99869.66;4281716;33;34762;-75
2022/11/25 01:09:42;;;;;;;30.67;17.98;;;;;;;4.26;77.63;99866.97;4291603;33;34237;-75
2022/11/25 01:12:09;;;;;;;29.08;17.10;;;;;;;3.97;78.63;99873.53;4304581;33;34107;-74
2022/11/25 01:14:36;;;;;;;29.00;17.60;;;;;;;4.13;78.83;99880.41;4304371;33;32925;-75
2022/11/25 01:17:04;;;;;;;32.05;17.35;;;;;;;4.30;78.56;99870.09;4304430;33;33993;-76
2022/11/25 01:19:32;;;;;;;27.95;16.45;;;;;;;4.47;77.64;99879.41;4291759;33;34293;-75
2022/11/25 01:21:59;;;;;;;29.55;17.12;;;;;;;4.38;77.92;99880.63;4289870;33;35119;-76
2022/11/25 01:24:27;;;;;;;31.40;16.77;;;;;;;4.25;78.18;99878.75;4290002;33;33774;-76
2022/11/25 01:26:54;;;;;;;28.83;16.65;;;;;;;3.93;79.07;99874.97;4289925;33;34780;-76
2022/11/25 01:29:22;;;;;;;30.75;16.67;;;;;;;4.30;78.68;99870.09;4289853;33;34070;-76
2022/11/25 01:31:56;;;;;;;30.42;18.00;;;;;;;4.50;78.06;99880.84;4289957;33;35091;-76
2022/11/25 01:34:25;;;;;;;26.90;16.65;;;;;;;4.77;76.40;99880.84;4289164;33;34585;-75
2022/11/25 01:36:56;;;;;;;30.02;17.02;;;;;;;4.78;75.86;99877.13;4289907;33;33964;-76
2022/11/25 01:39:24;;;;;;;25.92;16.65;;;;;;;4.67;76.06;99875.91;4290045;33;34217;-76
2022/11/25 01:42:00;;;;;;;29.20;17.35;;;;;;;4.21;77.27;99868.62;4289611;33;34287;-76
2022/11/25 01:44:29;;;;;;;29.05;16.15;;;;;;;4.17;77.94;99873.59;4276805;33;33679;-75
2022/11/25 01:47:18;;;;;;;27.62;16.60;;;;;;;4.31;77.49;99869.06;4276734;33;34633;-75
2022/11/25 01:49:53;;;;;;;31.50;17.50;;;;;;;3.94;78.78;99873.94;4276732;33;35085;-75
2022/11/25 01:52:28;;;;;;;30.08;17.08;;;;;;;4.34;78.49;99879.37;4289138;33;34869;-75
2022/11/25 01:55:00;;;;;;;32.78;18.65;;;;;;;4.25;78.42;99869.88;4289656;33;33643;-75
2022/11/25 01:57:36;;;;;;;33.08;18.70;;;;;;;3.85;80.19;99873.28;4276842;33;34654;-75
2022/11/25 02:00:06;;;;;;;29.33;17.35;;;;;;;4.10;80.23;99870.91;4276789;33;33507;-75
2022/11/25 02:02:44;;;;;;;35.03;19.27;;;;;;;4.19;79.51;99865.31;4280297;33;34940;-76
2022/11/25 02:05:15;;;;;;;32.00;18.10;;;;;;;3.88;81.61;99867.50;4278606;33;32952;-75
2022/11/25 02:07:45;;;;;;;30.88;18.25;;;;;;;3.98;81.04;99867.12;4278681;33;34692;-75
2022/11/25 02:10:20;;;;;;;33.70;19.58;;;;;;;4.18;80.23;99869.03;4290863;33;34410;-71
2022/11/25 02:12:48;;;;;;;35.97;19.42;;;;;;;4.20;79.88;99867.78;4291213;33;35003;-75
2022/11/25 02:15:15;;;;;;;34.22;18.52;;;;;;;3.97;81.51;99872.69;4291027;33;34492;-74
2022/11/25 02:17:43;;;;;;;31.20;17.67;;;;;;;4.22;79.37;99881.03;4285074;33;34750;-74
2022/11/25 02:20:14;;;;;;;30.37;17.23;;;;;;;4.27;79.10;99881.22;4276311;33;34196;-73
2022/11/25 02:23:05;;;;;;;31.33;18.23;;;;;;;4.32;78.56;99881.47;4276661;33;34986;-73
2022/11/25 02:25:38;;;;;;;32.97;17.65;;;;;;;4.78;76.56;99890.56;4302472;33;34666;-75
2022/11/25 02:28:11;;;;;;;30.10;17.83;;;;;;;4.48;77.54;99882.91;4278005;33;33104;-75
2022/11/25 02:30:39;;;;;;;32.00;18.87;;;;;;;4.80;75.39;99883.12;4290815;33;35014;-75
2022/11/25 02:33:06;;;;;;;31.58;18.33;;;;;;;4.33;76.54;99888.47;4291070;33;34243;-76
2022/11/25 02:35:37;;;;;;;31.45;17.08;;;;;;;4.74;75.23;99890.16;4290769;33;33808;-76
2022/11/25 02:38:11;;;;;;;29.95;17.35;;;;;;;4.58;75.08;99886.03;4290687;33;34606;-75
2022/11/25 02:40:52;;;;;;;28.02;17.35;;;;;;;4.62;74.97;99887.28;4290983;33;34184;-76
2022/11/25 02:43:20;;;;;;;32.65;17.87;;;;;;;4.64;74.76;99882.50;4289636;33;34949;-73
2022/11/25 02:46:00;;;;;;;28.80;17.85;;;;;;;4.25;76.00;99877.94;4290732;33;33808;-75
2022/11/25 02:48:31;;;;;;;31.10;17.83;;;;;;;4.14;77.00;99870.47;4290581;33;33760;-75
2022/11/25 02:51:19;;;;;;;29.52;17.12;;;;;;;4.17;77.03;99886.16;4292699;33;33964;-76
2022/11/25 02:53:47;;;;;;;31.48;18.35;;;;;;;4.05;77.13;99883.25;4285322;33;171546;-76
2022/11/25 02:56:16;;;;;;;32.70;18.58;;;;;;;3.88;78.72;99888.16;4289465;33;33835;-76
2022/11/25 02:58:43;;;;;;;31.73;17.65;;;;;;;4.18;77.77;99887.84;4303751;33;34736;-75
2022/11/25 03:01:11;;;;;;;33.05;18.95;;;;;;;4.35;77.04;99880.22;4278154;33;34205;-76
2022/11/25 03:03:39;;;;;;;35.55;18.48;;;;;;;4.25;77.61;99886.81;4290490;33;34669;-76
2022/11/25 03:06:07;;;;;;;34.17;18.75;;;;;;;3.93;78.59;99888.41;4290246;33;33801;-75
2022/11/25 03:08:36;;;;;;;36.25;19.02;;;;;;;3.89;79.20;99887.97;4290597;33;34651;-76
2022/11/25 03:11:05;;;;;;;33.75;18.62;;;;;;;3.72;79.62;99889.34;4290473;33;34929;-76
2022/11/25 03:13:32;;;;;;;31.17;18.98;;;;;;;3.42;81.80;99883.44;4303301;33;34220;-75
2022/11/25 03:16:00;;;;;;;33.85;19.12;;;;;;;4.22;78.46;99891.78;4296596;33;34350;-76
2022/11/25 03:18:27;;;;;;;34.30;18.52;;;;;;;4.13;78.37;99896.50;4288887;33;34613;-75
2022/11/25 03:20:55;;;;;;;30.10;17.25;;;;;;;3.98;78.55;99901.22;4288609;33;33965;-75
2022/11/25 03:23:23;;;;;;;35.83;18.55;;;;;;;3.97;78.80;99897.69;4289119;33;34346;-76
2022/11/25 03:25:53;;;;;;;33.05;18.12;;;;;;;3.90;79.76;99907.59;4276140;33;34519;-76
2022/11/25 03:28:21;;;;;;;35.53;18.42;;;;;;;3.67;80.28;99903.38;4288923;33;33568;-76
2022/11/25 03:30:49;;;;;;;35.25;19.52;;;;;;;3.85;79.96;99891.25;4276557;33;34248;-75
2022/11/25 03:33:16;;;;;;;30.42;18.87;;;;;;;3.95;79.17;99898.91;4290540;33;34820;-75
2022/11/25 03:35:44;;;;;;;32.42;18.35;;;;;;;3.96;79.04;99909.47;4277965;33;34456;-75
2022/11/25 03:38:12;;;;;;;34.90;19.45;;;;;;;3.38;82.24;99915.19;4277706;33;34600;-76
2022/11/25 03:40:39;;;;;;;33.13;19.62;;;;;;;3.65;81.29;99918.00;4290606;33;35016;-76
2022/11/25 03:43:08;;;;;;;36.10;20.50;;;;;;;3.29;83.54;99927.09;4290551;33;34024;-75
2022/11/25 03:45:36;;;;;;;38.90;20.15;;;;;;;3.37;83.05;99923.44;4290533;33;33737;-76
2022/11/25 03:48:03;;;;;;;35.22;19.40;;;;;;;3.58;82.10;99912.59;4290333;33;34593;-75
2022/11/25 03:50:31;;;;;;;32.83;18.83;;;;;;;4.01;80.06;99916.91;4265538;33;33292;-74
2022/11/25 03:52:58;;;;;;;32.65;18.83;;;;;;;4.14;78.89;99922.31;4276754;33;34164;-75
2022/11/25 03:55:26;;;;;;;32.83;18.58;;;;;;;4.16;78.55;99930.19;4290726;33;34474;-75
2022/11/25 03:57:54;;;;;;;34.47;18.02;;;;;;;4.21;78.08;99931.22;4290714;33;33946;-74
2022/11/25 04:00:23;;;;;;;32.15;18.12;;;;;;;4.02;78.82;99932.00;4290660;33;34916;-75
2022/11/25 04:02:52;;;;;;;34.78;19.15;;;;;;;3.90;79.26;99934.41;4277502;33;34212;-75
2022/11/25 04:05:19;;;;;;;31.58;18.55;;;;;;;4.05;78.68;99934.28;4290215;33;33562;-76
2022/11/25 04:07:47;;;;;;;31.60;17.60;;;;;;;4.28;77.08;99942.81;4290433;33;34839;-75
2022/11/25 04:10:21;;;;;;;34.20;18.87;;;;;;;3.86;78.87;99946.59;4290187;33;34195;-75
2022/11/25 04:12:49;;;;;;;30.45;17.23;;;;;;;4.18;77.10;99947.72;4290395;33;34160;-76
2022/11/25 04:15:17;;;;;;;31.45;17.60;;;;;;;4.39;76.67;99944.06;4277817;33;34556;-76
2022/11/25 04:17:45;;;;;;;30.62;17.35;;;;;;;4.54;75.48;99949.28;4277627;33;33798;-74
2022/11/25 04:20:13;;;;;;;33.03;18.15;;;;;;;4.25;76.37;99956.63;4289802;33;34081;-74
2022/11/25 04:22:41;;;;;;;32.40;18.35;;;;;;;4.42;75.54;99950.91;4266080;33;35108;-75
2022/11/25 04:25:09;;;;;;;34.45;19.27;;;;;;;3.92;77.70;99951.16;4290358;33;33400;-76
2022/11/25 04:27:37;;;;;;;36.67;19.40;;;;;;;3.91;78.14;99952.19;4265570;33;33926;-76
2022/11/25 04:30:06;;;;;;;35.20;19.10;;;;;;;4.17;77.72;99955.97;4290312;33;34276;-76
2022/11/25 04:32:36;;;;;;;39.42;20.35;;;;;;;4.38;76.69;99961.22;4277514;33;34050;-75
2022/11/25 04:35:04;;;;;;;40.03;21.15;;;;;;;4.55;76.64;99963.53;4290668;33;33830;-76
2022/11/25 04:37:32;;;;;;;39.67;21.00;;;;;;;4.29;77.45;99967.81;4293161;33;34649;-75
2022/11/25 04:40:00;;;;;;;43.60;21.17;;;;;;;4.07;78.27;99976.00;4304877;33;35136;-75
2022/11/25 04:42:31;;;;;;;35.72;21.12;;;;;;;3.96;78.75;99981.94;4291839;33;34651;-75
2022/11/25 04:44:59;;;;;;;34.88;21.02;;;;;;;4.25;77.65;99985.34;4304688;33;33606;-75
2022/11/25 04:47:47;;;;;;;38.42;19.95;;;;;;;4.56;77.07;99992.03;4287268;33;34717;-74
2022/11/25 04:50:18;;;;;;;38.95;20.20;;;;;;;4.36;78.06;100003.56;4289896;33;34274;-74
2022/11/25 04:52:46;;;;;;;40.28;21.55;;;;;;;3.93;78.84;100008.34;4277498;33;34944;-75
2022/11/25 04:55:14;;;;;;;41.17;22.27;;;;;;;4.28;77.93;100006.44;4277050;33;34527;-73
2022/11/25 04:57:42;;;;;;;35.72;20.70;;;;;;;4.40;77.03;100015.56;4289691;33;34657;-80
2022/11/25 05:00:10;;;;;;;37.40;20.55;;;;;;;4.18;78.00;100016.72;4290028;33;35089;-75
2022/11/25 05:02:38;;;;;;;40.55;21.62;;;;;;;4.15;77.43;100011.75;4290024;33;34148;-76
2022/11/25 05:05:06;;;;;;;36.05;19.87;;;;;;;4.31;76.89;100022.97;4290253;33;33517;-74
2022/11/25 05:07:34;;;;;;;35.50;20.75;;;;;;;4.35;76.53;100015.34;4294260;33;34669;-73
2022/11/25 05:10:02;;;;;;;38.75;20.70;;;;;;;4.48;75.36;100026.13;4300102;33;34123;-74
2022/11/25 05:12:30;;;;;;;40.70;22.70;;;;;;;4.41;75.31;100027.16;4277125;33;34100;-71
2022/11/25 05:14:58;;;;;;;41.70;22.65;;;;;;;4.18;75.74;100030.16;4290238;33;34323;-73
2022/11/25 05:17:28;;;;;;;36.90;20.90;;;;;;;3.86;77.18;100030.59;4290067;33;33975;-73
2022/11/25 05:19:55;;;;;;;38.13;21.55;;;;;;;3.96;76.74;100024.91;4290262;33;35306;-74
2022/11/25 05:22:26;;;;;;;40.42;22.42;;;;;;;3.44;78.18;100034.28;4276805;33;34071;-74
2022/11/25 05:24:53;;;;;;;37.53;20.75;;;;;;;3.44;78.97;100043.16;4290146;33;34471;-73
2022/11/25 05:27:22;;;;;;;38.78;20.88;;;;;;;3.42;79.32;100045.19;4288890;33;34744;-72
2022/11/25 05:29:50;;;;;;;36.58;21.23;;;;;;;3.62;78.68;100045.34;4291675;33;33738;-74
2022/11/25 05:32:22;;;;;;;37.00;21.67;;;;;;;3.53;78.59;100045.69;4291815;33;34722;-72
2022/11/25 05:34:50;;;;;;;37.67;19.83;;;;;;;3.51;78.34;100053.09;4304403;33;33954;-74
2022/11/25 05:37:17;;;;;;;35.20;19.08;;;;;;;3.83;78.11;100052.50;4304420;33;34078;-71
2022/11/25 05:39:52;;;;;;;38.63;19.80;;;;;;;4.00;76.52;100049.50;4304392;33;33990;-74
2022/11/25 05:42:20;;;;;;;39.08;21.00;;;;;;;3.79;77.77;100056.59;4303456;33;34219;-71
2022/11/25 05:44:47;;;;;;;36.42;19.65;;;;;;;3.98;77.46;100060.44;4304535;33;34013;-72
2022/11/25 05:47:15;;;;;;;38.55;20.60;;;;;;;3.40;79.65;100068.69;4304394;33;34019;-72
2022/11/25 05:49:43;;;;;;;37.80;20.37;;;;;;;3.84;78.27;100070.25;4304470;33;35014;-71
2022/11/25 05:52:11;;;;;;;37.65;22.00;;;;;;;3.55;78.91;100068.63;4304244;33;34108;-71
2022/11/25 05:54:39;;;;;;;37.35;20.80;;;;;;;4.04;76.90;100065.00;4303354;33;33760;-71
2022/11/25 05:57:06;;;;;;;35.22;20.48;;;;;;;4.07;75.83;100066.47;4304514;33;33972;-71
2022/11/25 05:59:38;;;;;;;36.10;20.42;;;;;;;3.82;77.01;100080.38;4276343;33;34516;-71
2022/11/25 06:02:05;;;;;;;35.42;20.05;;;;;;;3.61;77.45;100081.25;4289953;33;34224;-71
2022/11/25 06:04:33;;;;;;;35.17;19.42;;;;;;;3.60;78.22;100084.94;4297143;33;33870;-71
2022/11/25 06:07:02;;;;;;;32.47;18.80;;;;;;;3.37;78.67;100081.66;4304264;33;34520;-75
2022/11/25 06:09:29;;;;;;;33.70;18.60;;;;;;;3.51;78.59;100085.28;4279487;33;34130;-77
2022/11/25 06:11:57;;;;;;;35.75;19.33;;;;;;;4.16;75.67;100085.94;4303956;33;33761;-77
2022/11/25 06:14:24;;;;;;;32.30;18.25;;;;;;;4.26;75.11;100089.09;4301681;33;33917;-77
2022/11/25 06:16:52;;;;;;;35.30;19.17;;;;;;;3.80;76.30;100101.22;4294947;33;33905;-78
2022/11/25 06:19:20;;;;;;;37.10;20.27;;;;;;;4.01;75.97;100092.25;4289960;33;34981;-76
2022/11/25 06:21:48;;;;;;;36.75;20.70;;;;;;;4.08;74.81;100093.12;4302530;33;34128;-72
2022/11/25 06:24:16;;;;;;;34.78;19.67;;;;;;;3.73;76.57;100103.00;4287908;33;32926;-81
2022/11/25 06:26:44;;;;;;;33.90;19.58;;;;;;;4.00;75.63;100097.81;4301264;33;35088;-80
2022/11/25 06:29:11;;;;;;;6.12;3.90;;;;;;;3.92;76.04;100108.72;4287889;33;34553;-78
2022/11/25 06:31:39;;;;;;;34.03;19.23;;;;;;;4.27;74.48;100114.91;4276120;33;32757;-80
2022/11/25 06:34:08;;;;;;;36.55;20.10;;;;;;;4.36;73.89;100115.56;4300859;33;34875;-77
2022/11/25 06:36:38;;;;;;;37.95;20.20;;;;;;;4.28;74.43;100119.25;4302630;33;33439;-78
2022/11/25 06:39:06;;;;;;;37.33;21.50;;;;;;;4.16;75.24;100120.84;4295952;33;33834;-77
2022/11/25 06:41:33;;;;;;;38.75;21.00;;;;;;;4.29;75.01;100123.59;4288177;33;34309;-77
2022/11/25 06:44:01;;;;;;;39.17;21.73;;;;;;;4.23;75.31;100121.69;4286688;33;32962;-76
2022/11/25 06:46:28;;;;;;;40.55;22.85;;;;;;;4.19;75.55;100121.28;4287724;33;34731;-78
2022/11/25 06:49:00;;;;;;;41.80;21.45;;;;;;;4.25;75.70;100125.00;4282886;33;33754;-74
2022/11/25 06:51:27;;;;;;;37.80;21.65;;;;;;;4.24;75.69;100126.88;4301753;33;34015;-72
2022/11/25 06:53:55;;;;;;;41.80;22.85;;;;;;;4.20;75.56;100130.97;4299102;33;34229;-71
2022/11/25 06:56:25;;;;;;;38.30;22.15;;;;;;;4.13;75.80;100127.44;4303491;33;33801;-73
2022/11/25 06:58:53;;;;;;;39.15;21.65;;;;;;;4.18;75.98;100126.84;4290041;33;33865;-73
2022/11/25 07:01:26;;;;;;;2.28;1.60;;;;;;;4.21;76.40;100129.97;4289633;33;35004;-71
2022/11/25 07:03:58;;;;;;;42.83;22.95;;;;;;;4.48;75.32;100127.41;4302978;33;33517;-73
2022/11/25 07:06:26;;;;;;;40.88;21.83;;;;;;;3.94;78.06;100144.25;4289255;33;34097;-69
2022/11/25 07:08:53;;;;;;;39.17;21.95;;;;;;;4.28;77.11;100143.44;4290128;33;34897;-69
2022/11/25 07:11:39;;;;;;;38.30;21.73;;;;;;;4.46;76.70;100146.41;4289275;33;33904;-72
2022/11/25 07:14:13;;;;;;;36.65;21.02;;;;;;;4.42;76.86;100147.00;4289781;33;33419;-71
2022/11/25 07:16:43;;;;;;;36.63;21.30;;;;;;;3.68;81.74;100146.53;4281764;33;33897;-70
2022/11/25 07:19:12;;;;;;;42.85;23.75;;;;;;;4.02;80.53;100149.47;4282980;33;34294;-67
2022/11/25 07:21:43;;;;;;;42.88;25.40;;;;;;;4.04;80.80;100158.97;4304796;33;34991;-68
2022/11/25 07:24:12;;;;;;;53.47;29.92;;;;;;;4.21;80.53;100154.12;4279244;33;33196;-69
2022/11/25 07:26:41;;;;;;;52.08;27.23;;;;;;;4.27;83.74;100164.06;4291502;33;33896;-73
2022/11/25 07:29:11;;;;;;;42.35;22.83;;;;;;;4.36;86.74;100163.91;4291362;33;35003;-73
2022/11/25 07:31:59;;;;;;;39.00;21.52;;;;;;;5.01;83.31;100156.34;4294002;33;34189;-73
2022/11/25 07:34:30;;;;;;;38.83;21.08;;;;;;;5.60;80.32;100155.63;4304448;33;33571;-71
2022/11/25 07:36:58;;;;;;;34.40;20.48;;;;;;;5.73;81.26;100154.81;4297759;33;34665;-72
2022/11/25 07:39:25;;;;;;;34.85;20.40;;;;;;;5.89;80.89;100153.56;4290131;33;35125;-73
2022/11/25 07:41:53;;;;;;;34.00;20.25;;;;;;;6.50;80.32;100153.28;4290140;33;35022;-72
2022/11/25 07:44:20;;;;;;;39.63;21.87;;;;;;;7.35;73.41;100152.25;4296738;33;33792;-71
2022/11/25 07:46:49;;;;;;;33.80;19.65;;;;;;;7.62;70.13;100155.56;4305331;33;33576;-73
2022/11/25 07:49:19;;;;;;;32.60;20.08;;;;;;;8.00;68.88;100158.16;4291207;33;34104;-72
2022/11/25 07:51:54;;;;;;;38.20;21.12;;;;;;;8.28;67.81;100156.06;4290804;33;34350;-68
2022/11/25 07:54:22;;;;;;;31.00;19.87;;;;;;;8.28;68.71;100156.88;4291069;33;32886;-69
2022/11/25 07:56:50;;;;;;;35.90;19.50;;;;;;;8.37;68.63;100168.22;4291530;33;34618;-70
2022/11/25 07:59:20;;;;;;;31.10;18.33;;;;;;;8.51;68.06;100166.22;4291044;33;34236;-71
2022/11/25 08:01:49;;;;;;;31.02;18.00;;;;;;;8.43;66.89;100156.53;4290490;33;33908;-69
2022/11/25 08:04:18;;;;;;;34.58;18.77;;;;;;;8.21;67.75;100162.34;4303676;33;34642;-70
2022/11/25 08:06:49;;;;;;;32.95;17.85;;;;;;;7.85;68.03;100167.69;4286281;33;34478;-72
2022/11/25 08:09:19;;;;;;;30.50;18.52;;;;;;;8.77;66.49;100165.13;4287514;33;33915;-71
2022/11/25 08:11:48;;;;;;;28.73;17.80;;;;;;;8.80;66.21;100168.19;4289380;33;34063;-78
2022/11/25 08:14:15;;;;;;;28.45;16.45;;;;;;;9.19;66.48;100168.72;4288974;33;33577;-77
2022/11/25 08:16:43;;;;;;;29.35;17.52;;;;;;;9.35;65.80;100172.69;4275412;33;33822;-72
2022/11/25 08:19:13;;;;;;;28.95;15.98;;;;;;;9.37;65.38;100165.16;4275640;33;33678;-71
2022/11/25 08:21:41;;;;;;;27.55;16.05;;;;;;;9.78;64.87;100166.19;4275424;33;34458;-71
2022/11/25 08:24:19;;;;;;;26.62;15.73;;;;;;;10.20;60.84;100176.94;4264090;33;33386;-72
2022/11/25 08:26:47;;;;;;;25.75;15.45;;;;;;;10.12;61.00;100179.16;4275537;33;33480;-72
2022/11/25 08:29:16;;;;;;;24.75;15.13;;;;;;;10.42;61.47;100188.03;4274952;33;34111;-80
2022/11/25 08:31:44;;;;;;;22.70;13.18;;;;;;;10.79;60.70;100186.94;4275961;33;33970;-71
2022/11/25 08:34:18;;;;;;;24.05;13.70;;;;;;;11.14;60.29;100186.81;4278284;33;34553;-77
2022/11/25 08:36:46;;;;;;;23.23;13.43;;;;;;;11.72;57.27;100184.06;4285324;33;33645;-71
2022/11/25 08:39:17;;;;;;;23.33;13.38;;;;;;;11.99;56.44;100176.97;4275739;33;34171;-81
2022/11/25 08:42:06;;;;;;;22.70;13.40;;;;;;;12.60;55.14;100181.66;4271268;33;32468;-76
2022/11/25 08:44:34;;;;;;;25.83;13.93;;;;;;;12.66;53.72;100186.91;4279717;33;34590;-75
2022/11/25 08:47:01;;;;;;;20.75;12.57;;;;;;;12.63;51.77;100184.66;4288387;33;34919;-77
2022/11/25 08:49:29;;;;;;;22.95;14.30;;;;;;;12.51;53.88;100187.53;4291858;33;34009;-76
2022/11/25 08:52:02;;;;;;;20.45;12.93;;;;;;;12.48;54.49;100185.31;4299168;33;34887;-72
2022/11/25 08:54:30;;;;;;;25.62;14.18;;;;;;;13.02;53.63;100189.25;4297026;33;34627;-74
2022/11/25 08:56:58;;;;;;;21.75;13.13;;;;;;;13.85;48.38;100184.41;4287790;33;34545;-77
2022/11/25 08:59:25;;;;;;;22.87;12.90;;;;;;;13.22;51.57;100178.59;4296646;33;34238;-74
2022/11/25 09:01:54;;;;;;;21.65;12.98;;;;;;;12.85;52.86;100179.25;4302462;33;34062;-78
2022/11/25 09:04:21;;;;;;;22.20;13.23;;;;;;;12.37;54.39;100175.34;4291063;33;33912;-78
2022/11/25 09:06:49;;;;;;;21.77;12.65;;;;;;;11.70;55.65;100182.44;4291144;33;34720;-71
2022/11/25 09:09:17;;;;;;;20.45;12.37;;;;;;;12.65;56.15;100185.25;4288552;33;34943;-71
2022/11/25 09:11:44;;;;;;;21.23;13.68;;;;;;;12.98;55.37;100190.84;4304398;33;34285;-71
2022/11/25 09:14:12;;;;;;;18.77;11.98;;;;;;;13.32;53.22;100183.34;4303646;33;34580;-72
2022/11/25 09:16:40;;;;;;;19.98;12.75;;;;;;;11.91;56.43;100185.53;4303825;33;33178;-70
2022/11/25 09:19:07;;;;;;;23.92;13.23;;;;;;;12.19;56.63;100186.50;4290396;33;33314;-68
2022/11/25 09:21:35;;;;;;;24.10;13.07;;;;;;;12.01;56.11;100190.31;4303679;33;35025;-69
2022/11/25 09:24:02;;;;;;;22.20;12.95;;;;;;;12.45;56.19;100187.69;4303263;33;34638;-68
2022/11/25 09:26:35;;;;;;;19.02;11.02;;;;;;;12.66;55.61;100186.91;4290080;33;34655;-68
2022/11/25 09:29:03;;;;;;;22.67;12.63;;;;;;;10.96;58.29;100184.28;4302246;33;33893;-69
2022/11/25 09:31:30;;;;;;;18.90;11.55;;;;;;;10.60;60.90;100188.97;4303613;33;34646;-68
2022/11/25 09:33:58;;;;;;;21.12;12.23;;;;;;;11.23;58.93;100182.66;4303587;33;34656;-68
2022/11/25 09:36:25;;;;;;;18.40;11.38;;;;;;;10.90;60.35;100174.38;4303617;33;33813;-70
2022/11/25 09:38:53;;;;;;;20.15;10.43;;;;;;;10.87;61.67;100179.25;4302962;33;34746;-71
2022/11/25 09:48:14;;;;;;;;;;;;;;;11.95;58.66;100172.25;4302561;33;33505;-73
2022/11/25 09:50:52;;;;;;;24.00;13.27;;;;;;;12.36;55.80;100172.87;4290235;33;34359;-73
2022/11/25 09:53:22;;;;;;;18.10;11.65;;;;;;;12.20;57.46;100167.22;4303952;33;34250;-73
2022/11/25 09:55:53;;;;;;;19.37;11.98;;;;;;;12.91;55.18;100161.06;4303656;33;33846;-72
2022/11/25 09:59:02;;;;;;;20.27;11.55;;;;;;;12.97;54.57;100164.69;4290305;33;34116;-72
2022/11/25 10:01:30;;;;;;;17.75;10.52;;;;;;;13.14;54.05;100166.25;4283254;33;34237;-72
2022/11/25 10:04:04;;;;;;;19.05;10.85;;;;;;;12.84;55.55;100166.72;4289049;33;33373;-70
2022/11/25 10:06:35;;;;;;;18.87;11.35;;;;;;;12.69;55.06;100172.78;4296751;33;33414;-73
2022/11/25 10:09:11;;;;;;;17.35;11.55;;;;;;;13.20;54.10;100174.50;4289751;33;33917;-74
2022/11/25 10:11:59;;;;;;;19.00;11.75;;;;;;;13.20;55.10;100175.31;4300199;33;34377;-78
2022/11/25 10:14:38;;;;;;;16.17;10.40;;;;;;;12.84;56.59;100176.78;4305114;33;34259;-78
2022/11/25 10:17:08;;;;;;;17.75;11.00;;;;;;;12.45;56.44;100171.38;4304888;33;33513;-74
2022/11/25 10:19:40;;;;;;;19.17;10.60;;;;;;;13.00;55.69;100170.47;4318436;33;34976;-69
2022/11/25 10:22:28;;;;;;;17.87;10.55;;;;;;;12.13;58.09;100168.44;4318001;33;34241;-68
2022/11/25 10:24:59;;;;;;;16.45;9.63;;;;;;;12.23;58.21;100171.34;4317878;33;33825;-74
2022/11/25 10:27:51;;;;;;;15.73;10.27;;;;;;;12.04;58.30;100174.31;4304580;33;34429;-72
2022/11/25 10:30:21;;;;;;;17.12;10.52;;;;;;;11.08;61.06;100169.63;4304589;33;33655;-76
2022/11/25 10:33:13;;;;;;;19.23;12.77;;;;;;;9.99;63.98;100162.06;4318256;33;34121;-77
2022/11/25 10:35:48;;;;;;;18.42;11.27;;;;;;;11.73;60.77;100172.13;4318096;33;34130;-75
2022/11/25 10:38:24;;;;;;;16.42;11.20;;;;;;;11.51;59.71;100175.56;4291316;33;33741;-77
2022/11/25 10:40:53;;;;;;;17.60;10.25;;;;;;;10.93;61.79;100174.75;4290728;33;33964;-72
2022/11/25 10:43:21;;;;;;;18.33;11.55;;;;;;;10.99;61.18;100168.34;4290553;33;33440;-72
2022/11/25 10:46:15;;;;;;;20.02;11.45;;;;;;;11.89;60.62;100163.19;4291344;33;34045;-72
2022/11/25 10:48:51;;;;;;;19.58;11.02;;;;;;;11.72;58.61;100171.31;4290715;33;34680;-72
2022/11/25 10:51:32;;;;;;;17.23;10.25;;;;;;;12.14;59.64;100178.25;4290594;33;34679;-77
2022/11/25 10:54:13;;;;;;;19.02;11.68;;;;;;;12.37;57.62;100175.34;4290853;33;34259;-72
2022/11/25 10:57:07;;;;;;;20.88;12.63;;;;;;;12.60;57.48;100182.47;4303454;33;34034;-72
2022/11/25 10:59:36;;;;;;;20.35;12.07;;;;;;;12.59;58.47;100182.72;4291488;33;34571;-73
2022/11/25 11:02:20;;;;;;;21.20;11.27;;;;;;;13.21;55.76;100187.03;4290573;33;34035;-72
2022/11/25 11:04:53;;;;;;;16.83;10.15;;;;;;;12.90;56.48;100192.94;4290615;33;33995;-75
2022/11/25 11:07:21;;;;;;;18.73;11.50;;;;;;;12.83;56.30;100191.47;4299745;33;35122;-72
2022/11/25 11:09:48;;;;;;;20.98;13.00;;;;;;;12.59;56.86;100196.31;4290319;33;34625;-77
2022/11/25 11:12:21;;;;;;;20.40;12.55;;;;;;;12.45;56.93;100188.53;4297155;33;33956;-75
2022/11/25 11:14:49;;;;;;;20.83;10.77;;;;;;;12.40;57.78;100199.34;4301895;33;35050;-69
2022/11/25 11:17:32;;;;;;;19.35;11.57;;;;;;;12.55;57.14;100190.56;4288787;33;34806;-75
2022/11/25 11:20:07;;;;;;;19.12;11.38;;;;;;;10.84;63.39;100196.00;4289323;33;33792;-73
2022/11/25 11:22:36;;;;;;;20.70;11.82;;;;;;;12.32;57.63;100202.47;4301730;33;33652;-74
2022/11/25 11:25:25;;;;;;;19.85;11.55;;;;;;;12.29;57.72;100192.09;4288499;33;34195;-70
2022/11/25 11:27:53;;;;;;;20.12;11.77;;;;;;;12.09;59.37;100189.87;4288434;33;33888;-70
2022/11/25 11:30:29;;;;;;;21.30;12.45;;;;;;;12.76;56.83;100185.38;4276637;33;32933;-74
2022/11/25 11:33:06;;;;;;;22.60;14.45;;;;;;;12.96;57.04;100192.97;4288642;33;34136;-74
2022/11/25 11:35:42;;;;;;;17.50;11.32;;;;;;;12.55;57.54;100197.88;4288210;33;34266;-73
2022/11/25 11:38:15;;;;;;;18.42;10.88;;;;;;;13.00;54.85;100194.13;4288163;33;34730;-76
2022/11/25 11:40:46;;;;;;;18.90;11.45;;;;;;;12.89;54.57;100194.03;4301628;33;33709;-74
2022/11/25 11:43:38;;;;;;;20.52;11.65;;;;;;;12.58;55.65;100194.69;4288619;33;33968;-71
2022/11/25 11:46:24;;;;;;;19.05;10.18;;;;;;;12.96;55.30;100196.56;4287949;33;34922;-72